sensor_id;sensor_type;location;lat;lon;timestamp;temperature;humidity
45761;DHT22;31471;51.040;14.414;2023-02-15T00:01:05;1.00;99.90
45761;DHT22;31471;51.040;14.414;2023-02-15T00:03:30;1.00;99.90
45761;DHT22;31471;51.040;14.414;2023-02-15T00:05:56;1.00;99.90
45761;DHT22;31471;51.040;14.414;2023-02-15T00:08:22;1.00;99.90
45761;DHT22;31471;51.040;14.414;2023-02-15T00:10:47;1.00;99.90
45761;DHT22;31471;51.040;14.414;2023-02-15T00:13:13;1.00;99.90
45761;DHT22;31471;51.040;14.414;2023-02-15T00:15:38;1.00;99.90
45761;DHT22;31471;51.040;14.414;2023-02-15T00:18:04;1.00;99.90
45761;DHT22;31471;51.040;14.414;2023-02-15T00:20:29;1.00;99.90
45761;DHT22;31471;51.040;14.414;2023-02-15T00:22:55;1.00;99.90
45761;DHT22;31471;51.040;14.414;2023-02-15T00:25:20;1.00;99.90
45761;DHT22;31471;51.040;14.414;2023-02-15T00:27:45;1.00;99.90
45761;DHT22;31471;51.040;14.414;2023-02-15T00:30:11;1.00;99.90
45761;DHT22;31471;51.040;14.414;2023-02-15T00:32:37;1.00;99.90
45761;DHT22;31471;51.040;14.414;2023-02-15T00:35:02;1.00;99.90
45761;DHT22;31471;51.040;14.414;2023-02-15T00:37:28;1.00;99.90
45761;DHT22;31471;51.040;14.414;2023-02-15T00:39:53;1.00;99.90
45761;DHT22;31471;51.040;14.414;2023-02-15T00:42:18;1.00;99.90
45761;DHT22;31471;51.040;14.414;2023-02-15T00:44:44;1.00;99.90
45761;DHT22;31471;51.040;14.414;2023-02-15T00:47:09;1.00;99.90
45761;DHT22;31471;51.040;14.414;2023-02-15T00:49:35;1.00;99.90
45761;DHT22;31471;51.040;14.414;2023-02-15T00:52:00;1.00;99.90
45761;DHT22;31471;51.040;14.414;2023-02-15T00:54:26;0.90;99.90
45761;DHT22;31471;51.040;14.414;2023-02-15T00:56:51;0.90;99.90
45761;DHT22;31471;51.040;14.414;2023-02-15T00:59:17;1.00;99.90
45761;DHT22;31471;51.040;14.414;2023-02-15T01:01:42;0.90;99.90
45761;DHT22;31471;51.040;14.414;2023-02-15T01:04:08;1.00;99.90
45761;DHT22;31471;51.040;14.414;2023-02-15T01:06:33;1.00;99.90
45761;DHT22;31471;51.040;14.414;2023-02-15T01:08:59;1.00;99.90
45761;DHT22;31471;51.040;14.414;2023-02-15T01:11:24;0.90;99.90
45761;DHT22;31471;51.040;14.414;2023-02-15T01:13:50;1.00;99.90
45761;DHT22;31471;51.040;14.414;2023-02-15T01:16:16;1.00;99.90
45761;DHT22;31471;51.040;14.414;2023-02-15T01:18:42;1.00;99.90
45761;DHT22;31471;51.040;14.414;2023-02-15T01:21:11;0.90;99.90
45761;DHT22;31471;51.040;14.414;2023-02-15T01:23:36;1.00;99.90
45761;DHT22;31471;51.040;14.414;2023-02-15T01:26:02;0.90;99.90
45761;DHT22;31471;51.040;14.414;2023-02-15T01:28:28;1.00;99.90
45761;DHT22;31471;51.040;14.414;2023-02-15T01:30:54;0.90;99.90
45761;DHT22;31471;51.040;14.414;2023-02-15T01:33:19;0.90;99.90
45761;DHT22;31471;51.040;14.414;2023-02-15T01:35:45;0.90;99.90
45761;DHT22;31471;51.040;14.414;2023-02-15T01:38:11;0.90;99.90
45761;DHT22;31471;51.040;14.414;2023-02-15T01:40:37;0.80;99.90
45761;DHT22;31471;51.040;14.414;2023-02-15T01:43:08;0.80;99.90
45761;DHT22;31471;51.040;14.414;2023-02-15T01:45:34;0.80;99.90
45761;DHT22;31471;51.040;14.414;2023-02-15T01:48:02;0.80;99.90
45761;DHT22;31471;51.040;14.414;2023-02-15T01:50:30;0.80;99.90
45761;DHT22;31471;51.040;14.414;2023-02-15T01:53:02;0.80;99.90
45761;DHT22;31471;51.040;14.414;2023-02-15T01:55:30;0.80;99.90
45761;DHT22;31471;51.040;14.414;2023-02-15T01:57:57;0.80;99.90
45761;DHT22;31471;51.040;14.414;2023-02-15T02:00:23;0.80;99.90
45761;DHT22;31471;51.040;14.414;2023-02-15T02:02:50;0.80;99.90
45761;DHT22;31471;51.040;14.414;2023-02-15T02:05:16;0.80;99.90
45761;DHT22;31471;51.040;14.414;2023-02-15T02:07:43;0.80;99.90
45761;DHT22;31471;51.040;14.414;2023-02-15T02:10:11;0.80;99.90
45761;DHT22;31471;51.040;14.414;2023-02-15T02:12:37;0.80;99.90
45761;DHT22;31471;51.040;14.414;2023-02-15T02:15:04;0.80;99.90
45761;DHT22;31471;51.040;14.414;2023-02-15T02:17:54;0.80;99.90
45761;DHT22;31471;51.040;14.414;2023-02-15T02:20:26;0.80;99.90
45761;DHT22;31471;51.040;14.414;2023-02-15T02:30:49;0.70;99.90
45761;DHT22;31471;51.040;14.414;2023-02-15T02:33:20;0.70;99.90
45761;DHT22;31471;51.040;14.414;2023-02-15T02:38:27;0.70;99.90
45761;DHT22;31471;51.040;14.414;2023-02-15T02:41:01;0.70;99.90
45761;DHT22;31471;51.040;14.414;2023-02-15T02:43:54;0.60;99.90
45761;DHT22;31471;51.040;14.414;2023-02-15T02:46:20;0.60;99.90
45761;DHT22;31471;51.040;14.414;2023-02-15T02:48:47;0.60;99.90
45761;DHT22;31471;51.040;14.414;2023-02-15T02:51:14;0.60;99.90
45761;DHT22;31471;51.040;14.414;2023-02-15T02:53:45;0.60;99.90
45761;DHT22;31471;51.040;14.414;2023-02-15T02:56:17;0.60;99.90
45761;DHT22;31471;51.040;14.414;2023-02-15T02:58:48;0.60;99.90
45761;DHT22;31471;51.040;14.414;2023-02-15T03:01:18;0.60;99.90
45761;DHT22;31471;51.040;14.414;2023-02-15T03:03:50;0.60;99.90
45761;DHT22;31471;51.040;14.414;2023-02-15T03:06:22;0.60;99.90
45761;DHT22;31471;51.040;14.414;2023-02-15T03:08:51;0.60;99.90
45761;DHT22;31471;51.040;14.414;2023-02-15T03:11:20;0.50;99.90
45761;DHT22;31471;51.040;14.414;2023-02-15T03:13:45;0.50;99.90
45761;DHT22;31471;51.040;14.414;2023-02-15T03:16:13;0.50;99.90
45761;DHT22;31471;51.040;14.414;2023-02-15T03:18:53;0.50;99.90
45761;DHT22;31471;51.040;14.414;2023-02-15T03:21:40;0.50;99.90
45761;DHT22;31471;51.040;14.414;2023-02-15T03:24:09;0.50;99.90
45761;DHT22;31471;51.040;14.414;2023-02-15T03:26:35;0.50;99.90
45761;DHT22;31471;51.040;14.414;2023-02-15T03:29:01;0.50;99.90
45761;DHT22;31471;51.040;14.414;2023-02-15T03:31:29;0.50;99.90
45761;DHT22;31471;51.040;14.414;2023-02-15T03:34:02;0.50;99.90
45761;DHT22;31471;51.040;14.414;2023-02-15T03:36:37;0.50;99.90
45761;DHT22;31471;51.040;14.414;2023-02-15T03:39:07;0.50;99.90
45761;DHT22;31471;51.040;14.414;2023-02-15T03:41:38;0.40;99.90
45761;DHT22;31471;51.040;14.414;2023-02-15T03:44:19;0.50;99.90
45761;DHT22;31471;51.040;14.414;2023-02-15T03:46:52;0.40;99.90
45761;DHT22;31471;51.040;14.414;2023-02-15T03:49:21;0.40;99.90
45761;DHT22;31471;51.040;14.414;2023-02-15T03:51:49;0.40;99.90
45761;DHT22;31471;51.040;14.414;2023-02-15T03:54:17;0.40;99.90
45761;DHT22;31471;51.040;14.414;2023-02-15T03:57:04;0.40;99.90
45761;DHT22;31471;51.040;14.414;2023-02-15T03:59:48;0.50;99.90
45761;DHT22;31471;51.040;14.414;2023-02-15T04:02:44;0.40;99.90
45761;DHT22;31471;51.040;14.414;2023-02-15T04:05:13;0.40;99.90
45761;DHT22;31471;51.040;14.414;2023-02-15T04:07:39;0.40;99.90
45761;DHT22;31471;51.040;14.414;2023-02-15T04:10:05;0.40;99.90
45761;DHT22;31471;51.040;14.414;2023-02-15T04:12:49;0.40;99.90
45761;DHT22;31471;51.040;14.414;2023-02-15T04:15:15;0.40;99.90
45761;DHT22;31471;51.040;14.414;2023-02-15T04:18:01;0.30;99.90
45761;DHT22;31471;51.040;14.414;2023-02-15T04:20:27;0.30;99.90
45761;DHT22;31471;51.040;14.414;2023-02-15T04:23:11;0.30;99.90
45761;DHT22;31471;51.040;14.414;2023-02-15T04:25:55;0.30;99.90
45761;DHT22;31471;51.040;14.414;2023-02-15T04:28:21;0.30;99.90
45761;DHT22;31471;51.040;14.414;2023-02-15T04:30:46;0.30;99.90
45761;DHT22;31471;51.040;14.414;2023-02-15T04:33:12;0.30;99.90
45761;DHT22;31471;51.040;14.414;2023-02-15T04:35:37;0.30;99.90
45761;DHT22;31471;51.040;14.414;2023-02-15T04:38:02;0.30;99.90
45761;DHT22;31471;51.040;14.414;2023-02-15T04:40:28;0.30;99.90
45761;DHT22;31471;51.040;14.414;2023-02-15T04:42:53;0.30;99.90
45761;DHT22;31471;51.040;14.414;2023-02-15T04:45:19;0.20;99.90
45761;DHT22;31471;51.040;14.414;2023-02-15T04:47:44;0.20;99.90
45761;DHT22;31471;51.040;14.414;2023-02-15T04:50:10;0.30;99.90
45761;DHT22;31471;51.040;14.414;2023-02-15T04:52:35;0.20;99.90
45761;DHT22;31471;51.040;14.414;2023-02-15T04:55:01;0.20;99.90
45761;DHT22;31471;51.040;14.414;2023-02-15T04:57:27;0.20;99.90
45761;DHT22;31471;51.040;14.414;2023-02-15T04:59:52;0.20;99.90
45761;DHT22;31471;51.040;14.414;2023-02-15T05:02:17;0.20;99.90
45761;DHT22;31471;51.040;14.414;2023-02-15T05:04:43;0.20;99.90
45761;DHT22;31471;51.040;14.414;2023-02-15T05:07:08;0.20;99.90
45761;DHT22;31471;51.040;14.414;2023-02-15T05:09:34;0.20;99.90
45761;DHT22;31471;51.040;14.414;2023-02-15T05:11:59;0.20;99.90
45761;DHT22;31471;51.040;14.414;2023-02-15T05:14:25;0.10;99.90
45761;DHT22;31471;51.040;14.414;2023-02-15T05:16:50;0.10;99.90
45761;DHT22;31471;51.040;14.414;2023-02-15T05:19:16;0.10;99.90
45761;DHT22;31471;51.040;14.414;2023-02-15T05:21:41;0.20;99.90
45761;DHT22;31471;51.040;14.414;2023-02-15T05:24:07;0.20;99.90
45761;DHT22;31471;51.040;14.414;2023-02-15T05:26:52;0.20;99.90
45761;DHT22;31471;51.040;14.414;2023-02-15T05:29:37;0.10;99.90
45761;DHT22;31471;51.040;14.414;2023-02-15T05:32:02;0.20;99.90
45761;DHT22;31471;51.040;14.414;2023-02-15T05:34:29;0.10;99.90
45761;DHT22;31471;51.040;14.414;2023-02-15T05:36:54;0.10;99.90
45761;DHT22;31471;51.040;14.414;2023-02-15T05:39:20;0.10;99.90
45761;DHT22;31471;51.040;14.414;2023-02-15T05:41:45;0.10;99.90
45761;DHT22;31471;51.040;14.414;2023-02-15T05:44:11;0.10;99.90
45761;DHT22;31471;51.040;14.414;2023-02-15T05:46:36;0.10;99.90
45761;DHT22;31471;51.040;14.414;2023-02-15T05:49:01;0.10;99.90
45761;DHT22;31471;51.040;14.414;2023-02-15T05:51:27;0.10;99.90
45761;DHT22;31471;51.040;14.414;2023-02-15T05:53:52;0.10;99.90
45761;DHT22;31471;51.040;14.414;2023-02-15T05:56:18;0.10;99.90
45761;DHT22;31471;51.040;14.414;2023-02-15T05:58:44;0.10;99.90
45761;DHT22;31471;51.040;14.414;2023-02-15T06:01:13;0.10;99.90
45761;DHT22;31471;51.040;14.414;2023-02-15T06:03:39;0.00;99.90
45761;DHT22;31471;51.040;14.414;2023-02-15T06:06:05;0.00;99.90
45761;DHT22;31471;51.040;14.414;2023-02-15T06:08:32;0.00;99.90
45761;DHT22;31471;51.040;14.414;2023-02-15T06:10:57;0.00;99.90
45761;DHT22;31471;51.040;14.414;2023-02-15T06:13:23;0.00;99.90
45761;DHT22;31471;51.040;14.414;2023-02-15T06:15:48;0.00;99.90
45761;DHT22;31471;51.040;14.414;2023-02-15T06:18:13;0.00;99.90
45761;DHT22;31471;51.040;14.414;2023-02-15T06:20:39;0.00;99.90
45761;DHT22;31471;51.040;14.414;2023-02-15T06:23:05;0.00;99.90
45761;DHT22;31471;51.040;14.414;2023-02-15T06:25:30;0.00;99.90
45761;DHT22;31471;51.040;14.414;2023-02-15T06:27:56;0.00;99.90
45761;DHT22;31471;51.040;14.414;2023-02-15T06:30:21;0.00;99.90
45761;DHT22;31471;51.040;14.414;2023-02-15T06:32:46;0.10;99.90
45761;DHT22;31471;51.040;14.414;2023-02-15T06:35:12;0.10;99.90
45761;DHT22;31471;51.040;14.414;2023-02-15T06:37:38;0.00;99.90
45761;DHT22;31471;51.040;14.414;2023-02-15T06:40:03;0.10;99.90
45761;DHT22;31471;51.040;14.414;2023-02-15T06:42:29;0.10;99.90
45761;DHT22;31471;51.040;14.414;2023-02-15T06:44:55;0.10;99.90
45761;DHT22;31471;51.040;14.414;2023-02-15T06:47:20;0.10;99.90
45761;DHT22;31471;51.040;14.414;2023-02-15T06:49:45;0.10;99.90
45761;DHT22;31471;51.040;14.414;2023-02-15T06:52:11;0.10;99.90
45761;DHT22;31471;51.040;14.414;2023-02-15T06:54:37;0.10;99.90
45761;DHT22;31471;51.040;14.414;2023-02-15T06:57:02;0.10;99.90
45761;DHT22;31471;51.040;14.414;2023-02-15T06:59:27;0.10;99.90
45761;DHT22;31471;51.040;14.414;2023-02-15T07:01:53;0.10;99.90
45761;DHT22;31471;51.040;14.414;2023-02-15T07:04:18;0.20;99.90
45761;DHT22;31471;51.040;14.414;2023-02-15T07:06:44;0.20;99.90
45761;DHT22;31471;51.040;14.414;2023-02-15T07:09:10;0.20;99.90
45761;DHT22;31471;51.040;14.414;2023-02-15T07:11:36;0.20;99.90
45761;DHT22;31471;51.040;14.414;2023-02-15T07:14:20;0.30;99.90
45761;DHT22;31471;51.040;14.414;2023-02-15T07:16:45;0.20;99.90
45761;DHT22;31471;51.040;14.414;2023-02-15T07:19:11;0.30;99.90
45761;DHT22;31471;51.040;14.414;2023-02-15T07:21:36;0.30;99.90
45761;DHT22;31471;51.040;14.414;2023-02-15T07:24:02;0.30;99.90
45761;DHT22;31471;51.040;14.414;2023-02-15T07:26:27;0.40;99.90
45761;DHT22;31471;51.040;14.414;2023-02-15T07:28:53;0.40;99.90
45761;DHT22;31471;51.040;14.414;2023-02-15T07:31:18;0.40;99.90
45761;DHT22;31471;51.040;14.414;2023-02-15T07:33:44;0.40;99.90
45761;DHT22;31471;51.040;14.414;2023-02-15T07:36:09;0.40;99.90
45761;DHT22;31471;51.040;14.414;2023-02-15T07:38:37;0.50;99.90
45761;DHT22;31471;51.040;14.414;2023-02-15T07:41:04;0.50;99.90
45761;DHT22;31471;51.040;14.414;2023-02-15T07:43:32;0.50;99.90
45761;DHT22;31471;51.040;14.414;2023-02-15T07:46:01;0.60;99.90
45761;DHT22;31471;51.040;14.414;2023-02-15T07:48:27;0.60;99.90
45761;DHT22;31471;51.040;14.414;2023-02-15T07:50:53;0.60;99.90
45761;DHT22;31471;51.040;14.414;2023-02-15T07:53:18;0.60;99.90
45761;DHT22;31471;51.040;14.414;2023-02-15T07:55:43;0.60;99.90
45761;DHT22;31471;51.040;14.414;2023-02-15T07:58:09;0.70;99.90
45761;DHT22;31471;51.040;14.414;2023-02-15T08:00:34;0.80;99.90
45761;DHT22;31471;51.040;14.414;2023-02-15T08:03:22;0.80;99.90
45761;DHT22;31471;51.040;14.414;2023-02-15T08:05:47;0.80;99.90
45761;DHT22;31471;51.040;14.414;2023-02-15T08:08:13;0.80;99.90
45761;DHT22;31471;51.040;14.414;2023-02-15T08:13:45;1.00;99.90
45761;DHT22;31471;51.040;14.414;2023-02-15T08:16:29;1.00;99.90
45761;DHT22;31471;51.040;14.414;2023-02-15T08:18:55;1.10;99.90
45761;DHT22;31471;51.040;14.414;2023-02-15T08:21:21;1.10;99.90
45761;DHT22;31471;51.040;14.414;2023-02-15T08:23:47;1.20;99.90
45761;DHT22;31471;51.040;14.414;2023-02-15T08:26:13;1.10;99.90
45761;DHT22;31471;51.040;14.414;2023-02-15T08:28:39;1.10;99.90
45761;DHT22;31471;51.040;14.414;2023-02-15T08:31:05;1.10;99.90
45761;DHT22;31471;51.040;14.414;2023-02-15T08:33:31;1.10;99.90
45761;DHT22;31471;51.040;14.414;2023-02-15T08:35:57;1.20;99.90
45761;DHT22;31471;51.040;14.414;2023-02-15T08:38:27;1.20;99.90
45761;DHT22;31471;51.040;14.414;2023-02-15T08:40:52;1.20;99.90
45761;DHT22;31471;51.040;14.414;2023-02-15T08:43:17;1.20;99.90
45761;DHT22;31471;51.040;14.414;2023-02-15T08:45:43;1.30;99.90
45761;DHT22;31471;51.040;14.414;2023-02-15T08:48:08;1.30;99.90
45761;DHT22;31471;51.040;14.414;2023-02-15T08:50:34;1.30;99.90
45761;DHT22;31471;51.040;14.414;2023-02-15T08:52:59;1.40;99.90
45761;DHT22;31471;51.040;14.414;2023-02-15T08:55:25;1.40;99.90
45761;DHT22;31471;51.040;14.414;2023-02-15T08:57:50;1.40;99.90
45761;DHT22;31471;51.040;14.414;2023-02-15T09:00:16;1.50;99.90
45761;DHT22;31471;51.040;14.414;2023-02-15T09:02:42;1.50;99.90
45761;DHT22;31471;51.040;14.414;2023-02-15T09:05:07;1.50;99.90
45761;DHT22;31471;51.040;14.414;2023-02-15T09:07:33;1.50;99.90
45761;DHT22;31471;51.040;14.414;2023-02-15T09:09:58;1.60;99.90
45761;DHT22;31471;51.040;14.414;2023-02-15T09:12:24;1.50;99.90
45761;DHT22;31471;51.040;14.414;2023-02-15T09:14:49;1.50;99.90
45761;DHT22;31471;51.040;14.414;2023-02-15T09:17:15;1.60;99.90
45761;DHT22;31471;51.040;14.414;2023-02-15T09:19:40;1.60;99.90
45761;DHT22;31471;51.040;14.414;2023-02-15T09:22:05;1.70;99.90
45761;DHT22;31471;51.040;14.414;2023-02-15T09:24:31;1.80;99.90
45761;DHT22;31471;51.040;14.414;2023-02-15T09:26:57;1.80;99.90
45761;DHT22;31471;51.040;14.414;2023-02-15T09:29:22;1.80;99.90
45761;DHT22;31471;51.040;14.414;2023-02-15T09:31:49;1.90;99.90
45761;DHT22;31471;51.040;14.414;2023-02-15T09:34:16;1.80;99.90
45761;DHT22;31471;51.040;14.414;2023-02-15T09:36:42;1.70;99.90
45761;DHT22;31471;51.040;14.414;2023-02-15T09:41:48;1.90;99.90
45761;DHT22;31471;51.040;14.414;2023-02-15T09:51:44;1.90;99.90
45761;DHT22;31471;51.040;14.414;2023-02-15T09:54:16;1.90;99.90
45761;DHT22;31471;51.040;14.414;2023-02-15T09:56:48;2.00;99.90
45761;DHT22;31471;51.040;14.414;2023-02-15T09:59:35;2.00;99.90
45761;DHT22;31471;51.040;14.414;2023-02-15T10:04:53;1.90;99.90
45761;DHT22;31471;51.040;14.414;2023-02-15T10:07:24;1.90;99.90
45761;DHT22;31471;51.040;14.414;2023-02-15T10:10:08;2.00;99.90
45761;DHT22;31471;51.040;14.414;2023-02-15T10:12:39;2.20;99.90
45761;DHT22;31471;51.040;14.414;2023-02-15T10:15:21;2.10;99.90
45761;DHT22;31471;51.040;14.414;2023-02-15T10:20:43;2.00;99.90
45761;DHT22;31471;51.040;14.414;2023-02-15T10:23:26;2.10;99.90
45761;DHT22;31471;51.040;14.414;2023-02-15T10:31:16;2.20;99.90
45761;DHT22;31471;51.040;14.414;2023-02-15T10:33:46;2.30;99.90
45761;DHT22;31471;51.040;14.414;2023-02-15T10:36:24;2.40;99.90
45761;DHT22;31471;51.040;14.414;2023-02-15T10:38:59;2.50;99.90
45761;DHT22;31471;51.040;14.414;2023-02-15T10:44:13;2.40;99.90
45761;DHT22;31471;51.040;14.414;2023-02-15T10:47:03;2.40;99.90
45761;DHT22;31471;51.040;14.414;2023-02-15T10:52:08;2.50;99.90
45761;DHT22;31471;51.040;14.414;2023-02-15T10:54:45;2.60;99.90
45761;DHT22;31471;51.040;14.414;2023-02-15T10:59:48;2.60;99.90
45761;DHT22;31471;51.040;14.414;2023-02-15T11:02:20;2.70;99.90
45761;DHT22;31471;51.040;14.414;2023-02-15T11:07:19;2.60;99.90
45761;DHT22;31471;51.040;14.414;2023-02-15T11:09:47;2.70;99.90
45761;DHT22;31471;51.040;14.414;2023-02-15T11:12:14;2.70;99.90
45761;DHT22;31471;51.040;14.414;2023-02-15T11:14:47;2.60;99.90
45761;DHT22;31471;51.040;14.414;2023-02-15T11:17:16;2.70;99.90
45761;DHT22;31471;51.040;14.414;2023-02-15T11:19:47;2.60;99.90
45761;DHT22;31471;51.040;14.414;2023-02-15T11:22:15;2.50;99.90
45761;DHT22;31471;51.040;14.414;2023-02-15T11:24:42;2.50;99.90
45761;DHT22;31471;51.040;14.414;2023-02-15T11:27:16;2.40;99.90
45761;DHT22;31471;51.040;14.414;2023-02-15T11:32:38;2.40;99.90
45761;DHT22;31471;51.040;14.414;2023-02-15T11:40:24;2.40;99.90
45761;DHT22;31471;51.040;14.414;2023-02-15T11:42:51;2.30;99.90
45761;DHT22;31471;51.040;14.414;2023-02-15T11:45:27;2.30;99.90
45761;DHT22;31471;51.040;14.414;2023-02-15T11:47:53;2.50;99.90
45761;DHT22;31471;51.040;14.414;2023-02-15T11:50:23;2.40;99.90
45761;DHT22;31471;51.040;14.414;2023-02-15T11:52:52;2.50;99.90
45761;DHT22;31471;51.040;14.414;2023-02-15T11:55:20;2.60;99.90
45761;DHT22;31471;51.040;14.414;2023-02-15T11:57:49;2.60;99.90
45761;DHT22;31471;51.040;14.414;2023-02-15T12:00:20;2.60;99.90
45761;DHT22;31471;51.040;14.414;2023-02-15T12:02:50;2.60;99.90
45761;DHT22;31471;51.040;14.414;2023-02-15T12:05:17;2.60;99.90
45761;DHT22;31471;51.040;14.414;2023-02-15T12:08:03;2.50;99.90
45761;DHT22;31471;51.040;14.414;2023-02-15T12:10:39;2.40;99.90
45761;DHT22;31471;51.040;14.414;2023-02-15T12:13:11;2.50;99.90
45761;DHT22;31471;51.040;14.414;2023-02-15T12:15:37;2.50;99.90
45761;DHT22;31471;51.040;14.414;2023-02-15T12:18:03;2.40;99.90
45761;DHT22;31471;51.040;14.414;2023-02-15T12:20:32;2.50;99.90
45761;DHT22;31471;51.040;14.414;2023-02-15T12:23:02;2.40;99.90
45761;DHT22;31471;51.040;14.414;2023-02-15T12:25:35;2.60;99.90
45761;DHT22;31471;51.040;14.414;2023-02-15T12:28:02;2.70;99.90
45761;DHT22;31471;51.040;14.414;2023-02-15T12:32:57;2.80;99.90
45761;DHT22;31471;51.040;14.414;2023-02-15T12:37:55;3.00;99.90
45761;DHT22;31471;51.040;14.414;2023-02-15T12:40:22;3.10;99.90
45761;DHT22;31471;51.040;14.414;2023-02-15T12:42:48;3.10;99.90
45761;DHT22;31471;51.040;14.414;2023-02-15T12:45:21;3.20;99.90
45761;DHT22;31471;51.040;14.414;2023-02-15T12:47:47;3.20;99.90
45761;DHT22;31471;51.040;14.414;2023-02-15T12:50:15;3.30;99.90
45761;DHT22;31471;51.040;14.414;2023-02-15T12:52:47;3.40;99.90
45761;DHT22;31471;51.040;14.414;2023-02-15T12:57:42;3.50;99.90
45761;DHT22;31471;51.040;14.414;2023-02-15T13:00:27;3.40;99.90
45761;DHT22;31471;51.040;14.414;2023-02-15T13:02:57;3.50;99.90
45761;DHT22;31471;51.040;14.414;2023-02-15T13:05:29;3.50;99.90
45761;DHT22;31471;51.040;14.414;2023-02-15T13:07:57;3.60;99.90
45761;DHT22;31471;51.040;14.414;2023-02-15T13:10:25;3.50;99.90
45761;DHT22;31471;51.040;14.414;2023-02-15T13:12:51;3.60;99.90
45761;DHT22;31471;51.040;14.414;2023-02-15T13:15:35;3.50;99.90
45761;DHT22;31471;51.040;14.414;2023-02-15T13:18:02;3.60;99.90
45761;DHT22;31471;51.040;14.414;2023-02-15T13:20:28;3.60;99.90
45761;DHT22;31471;51.040;14.414;2023-02-15T13:22:57;3.60;99.90
45761;DHT22;31471;51.040;14.414;2023-02-15T13:25:27;3.60;99.90
45761;DHT22;31471;51.040;14.414;2023-02-15T13:27:55;3.60;99.90
45761;DHT22;31471;51.040;14.414;2023-02-15T13:30:24;3.70;99.90
45761;DHT22;31471;51.040;14.414;2023-02-15T13:32:52;3.70;99.90
45761;DHT22;31471;51.040;14.414;2023-02-15T13:35:19;3.70;99.90
45761;DHT22;31471;51.040;14.414;2023-02-15T13:58:59;3.20;99.90
45761;DHT22;31471;51.040;14.414;2023-02-15T14:14:48;3.20;99.90
45761;DHT22;31471;51.040;14.414;2023-02-15T14:17:30;3.00;99.90
45761;DHT22;31471;51.040;14.414;2023-02-15T14:20:08;3.10;99.90
45761;DHT22;31471;51.040;14.414;2023-02-15T14:22:44;3.00;99.90
45761;DHT22;31471;51.040;14.414;2023-02-15T14:25:28;3.10;99.90
45761;DHT22;31471;51.040;14.414;2023-02-15T14:28:15;3.00;99.90
45761;DHT22;31471;51.040;14.414;2023-02-15T14:30:43;3.00;99.90
45761;DHT22;31471;51.040;14.414;2023-02-15T14:35:54;2.90;99.90
45761;DHT22;31471;51.040;14.414;2023-02-15T14:38:23;2.90;99.90
45761;DHT22;31471;51.040;14.414;2023-02-15T14:40:53;3.00;99.90
45761;DHT22;31471;51.040;14.414;2023-02-15T14:43:45;2.90;99.90
45761;DHT22;31471;51.040;14.414;2023-02-15T14:46:19;2.90;99.90
45761;DHT22;31471;51.040;14.414;2023-02-15T14:48:47;2.80;99.90
45761;DHT22;31471;51.040;14.414;2023-02-15T14:53:57;2.80;99.90
45761;DHT22;31471;51.040;14.414;2023-02-15T14:56:23;2.80;99.90
45761;DHT22;31471;51.040;14.414;2023-02-15T15:01:15;2.50;99.90
45761;DHT22;31471;51.040;14.414;2023-02-15T15:03:49;2.50;99.90
45761;DHT22;31471;51.040;14.414;2023-02-15T15:06:32;2.60;99.90
45761;DHT22;31471;51.040;14.414;2023-02-15T15:09:00;2.40;99.90
45761;DHT22;31471;51.040;14.414;2023-02-15T15:13:55;2.30;99.90
45761;DHT22;31471;51.040;14.414;2023-02-15T15:16:26;2.30;99.90
45761;DHT22;31471;51.040;14.414;2023-02-15T15:18:52;2.20;99.90
45761;DHT22;31471;51.040;14.414;2023-02-15T15:24:04;2.10;99.90
45761;DHT22;31471;51.040;14.414;2023-02-15T15:26:31;2.10;99.90
45761;DHT22;31471;51.040;14.414;2023-02-15T15:29:00;2.00;99.90
45761;DHT22;31471;51.040;14.414;2023-02-15T15:31:43;1.80;99.90
45761;DHT22;31471;51.040;14.414;2023-02-15T15:39:20;1.70;99.90
45761;DHT22;31471;51.040;14.414;2023-02-15T15:44:42;1.60;99.90
45761;DHT22;31471;51.040;14.414;2023-02-15T15:49:55;1.50;99.90
45761;DHT22;31471;51.040;14.414;2023-02-15T15:52:21;1.60;99.90
45761;DHT22;31471;51.040;14.414;2023-02-15T15:54:48;1.40;99.90
45761;DHT22;31471;51.040;14.414;2023-02-15T15:57:24;1.40;99.90
45761;DHT22;31471;51.040;14.414;2023-02-15T15:59:51;1.50;99.90
45761;DHT22;31471;51.040;14.414;2023-02-15T16:02:17;1.40;99.90
45761;DHT22;31471;51.040;14.414;2023-02-15T16:04:43;1.50;99.90
45761;DHT22;31471;51.040;14.414;2023-02-15T16:07:13;1.50;99.90
45761;DHT22;31471;51.040;14.414;2023-02-15T16:09:39;1.40;99.90
45761;DHT22;31471;51.040;14.414;2023-02-15T16:12:04;1.30;99.90
45761;DHT22;31471;51.040;14.414;2023-02-15T16:14:39;1.20;99.90
45761;DHT22;31471;51.040;14.414;2023-02-15T16:17:06;1.20;99.90
45761;DHT22;31471;51.040;14.414;2023-02-15T16:19:36;1.10;99.90
45761;DHT22;31471;51.040;14.414;2023-02-15T16:22:03;1.00;99.90
45761;DHT22;31471;51.040;14.414;2023-02-15T16:29:42;0.90;99.90
45761;DHT22;31471;51.040;14.414;2023-02-15T16:32:15;0.90;99.90
45761;DHT22;31471;51.040;14.414;2023-02-15T16:34:58;0.90;99.90
45761;DHT22;31471;51.040;14.414;2023-02-15T16:37:25;0.70;99.90
45761;DHT22;31471;51.040;14.414;2023-02-15T16:39:53;0.60;99.90
45761;DHT22;31471;51.040;14.414;2023-02-15T16:42:18;0.60;99.90
45761;DHT22;31471;51.040;14.414;2023-02-15T16:44:45;0.60;99.90
45761;DHT22;31471;51.040;14.414;2023-02-15T16:50:06;0.50;99.90
45761;DHT22;31471;51.040;14.414;2023-02-15T16:52:31;0.50;99.90
45761;DHT22;31471;51.040;14.414;2023-02-15T16:54:58;0.50;99.90
45761;DHT22;31471;51.040;14.414;2023-02-15T16:57:25;0.50;99.90
45761;DHT22;31471;51.040;14.414;2023-02-15T16:59:52;0.50;99.90
45761;DHT22;31471;51.040;14.414;2023-02-15T17:02:19;0.50;99.90
45761;DHT22;31471;51.040;14.414;2023-02-15T17:04:59;0.40;99.90
45761;DHT22;31471;51.040;14.414;2023-02-15T17:07:26;0.40;99.90
45761;DHT22;31471;51.040;14.414;2023-02-15T17:09:52;0.40;99.90
45761;DHT22;31471;51.040;14.414;2023-02-15T17:15:03;0.40;99.90
45761;DHT22;31471;51.040;14.414;2023-02-15T17:17:29;0.40;99.90
45761;DHT22;31471;51.040;14.414;2023-02-15T17:19:56;0.30;99.90
45761;DHT22;31471;51.040;14.414;2023-02-15T17:22:22;0.30;99.90
45761;DHT22;31471;51.040;14.414;2023-02-15T17:24:48;0.30;99.90
45761;DHT22;31471;51.040;14.414;2023-02-15T17:27:22;0.30;99.90
45761;DHT22;31471;51.040;14.414;2023-02-15T17:29:55;0.30;99.90
45761;DHT22;31471;51.040;14.414;2023-02-15T17:32:22;0.30;99.90
45761;DHT22;31471;51.040;14.414;2023-02-15T17:37:29;0.20;99.90
45761;DHT22;31471;51.040;14.414;2023-02-15T17:39:55;0.20;99.90
45761;DHT22;31471;51.040;14.414;2023-02-15T17:42:21;0.10;99.90
45761;DHT22;31471;51.040;14.414;2023-02-15T17:44:47;0.10;99.90
45761;DHT22;31471;51.040;14.414;2023-02-15T17:47:14;0.10;99.90
45761;DHT22;31471;51.040;14.414;2023-02-15T17:49:40;0.10;99.90
45761;DHT22;31471;51.040;14.414;2023-02-15T17:52:08;0.00;99.90